Time;durP1;ratioP1;P1;durP2;ratioP2;P2;SDS_P1;SDS_P2;PMS_P1;PMS_P2;Temp;Humidity;BMP_temperature;BMP_pressure;BME280_temperature;BME280_humidity;BME280_pressure;Samples;Min_cycle;Max_cycle;Signal;HPM_P1;HPM_P2
2021/11/26 00:02:05;;;;;;;74.33;21.13;;;;;;;;;;6247310;23;20229;-91
2021/11/26 00:05:20;;;;;;;81.73;21.67;;;;;;;;;;6247050;22;20237;-89
2021/11/26 00:08:33;;;;;;;74.73;22.43;;;;;;;;;;6231377;22;20198;-91
2021/11/26 00:11:45;;;;;;;81.87;22.67;;;;;;;;;;6233412;23;20647;-90
2021/11/26 00:15:12;;;;;;;74.87;21.43;;;;;;;;;;6233088;23;20171;-90
2021/11/26 00:18:27;;;;;;;80.83;22.93;;;;;;;;;;6231023;23;20160;-89
2021/11/26 00:21:42;;;;;;;65.73;19.10;;;;;;;;;;6231872;23;20167;-89
2021/11/26 00:24:54;;;;;;;70.57;20.03;;;;;;;;;;6231589;23;20245;-89
2021/11/26 00:28:06;;;;;;;64.47;19.80;;;;;;;;;;6231467;23;20210;-89
2021/11/26 00:31:19;;;;;;;75.50;21.63;;;;;;;;;;6230228;23;20242;-89
2021/11/26 00:34:31;;;;;;;71.77;20.97;;;;;;;;;;6232247;23;20272;-91
2021/11/26 00:37:43;;;;;;;76.87;22.30;;;;;;;;;;6232644;23;20155;-90
2021/11/26 00:40:55;;;;;;;70.67;20.07;;;;;;;;;;6232767;23;20246;-89
2021/11/26 00:44:07;;;;;;;72.37;20.90;;;;;;;;;;6232368;23;20175;-89
2021/11/26 00:47:22;;;;;;;76.80;20.97;;;;;;;;;;6231551;23;20259;-90
2021/11/26 00:50:36;;;;;;;78.30;20.77;;;;;;;;;;6232399;23;20183;-88
2021/11/26 00:53:50;;;;;;;66.37;20.77;;;;;;;;;;6233102;23;20180;-88
2021/11/26 00:57:07;;;;;;;73.33;20.90;;;;;;;;;;6231773;23;20166;-89
2021/11/26 01:00:19;;;;;;;77.70;21.57;;;;;;;;;;6236648;23;20195;-90
2021/11/26 01:07:00;;;;;;;71.80;21.57;;;;;;;;;;6236315;23;20199;-90
2021/11/26 01:10:14;;;;;;;76.20;21.53;;;;;;;;;;6246737;23;20221;-89
2021/11/26 01:16:54;;;;;;;83.73;21.43;;;;;;;;;;6251656;22;20158;-90
2021/11/26 01:20:21;;;;;;;86.17;22.97;;;;;;;;;;6251027;22;20175;-90
2021/11/26 03:20:28;;;;;;;69.60;19.93;;;;;;;;;;6152537;22;20287;-92
2021/11/26 03:23:41;;;;;;;75.70;22.10;;;;;;;;;;6217218;23;20176;-90
2021/11/26 03:26:53;;;;;;;72.23;21.03;;;;;;;;;;6217063;23;20258;-91
2021/11/26 03:30:06;;;;;;;71.20;19.90;;;;;;;;;;6217278;23;20270;-90
2021/11/26 03:33:19;;;;;;;76.40;20.70;;;;;;;;;;6217653;23;20195;-90
2021/11/26 03:36:33;;;;;;;78.90;21.97;;;;;;;;;;6217943;23;20159;-89
2021/11/26 03:39:45;;;;;;;68.50;21.00;;;;;;;;;;6215916;23;20249;-90
2021/11/26 03:42:57;;;;;;;72.17;21.10;;;;;;;;;;6216294;23;20187;-91
2021/11/26 03:46:09;;;;;;;80.50;22.10;;;;;;;;;;6218103;23;20175;-91
2021/11/26 03:49:21;;;;;;;78.07;21.60;;;;;;;;;;6216342;23;20219;-89
2021/11/26 03:52:34;;;;;;;73.20;21.00;;;;;;;;;;6216462;23;20164;-91
2021/11/26 03:55:46;;;;;;;66.33;19.67;;;;;;;;;;6216736;23;20164;-89
2021/11/26 23:06:16;;;;;;;49.27;15.80;;;;;;;;;;6179391;22;20198;-87
2021/11/26 23:09:23;;;;;;;53.97;16.47;;;;;;;;;;6183510;23;20165;-90
2021/11/26 23:12:28;;;;;;;49.03;15.60;;;;;;;;;;6183933;23;20183;-92
2021/11/26 23:15:35;;;;;;;43.70;15.43;;;;;;;;;;6183338;23;20243;-91
2021/11/26 23:18:41;;;;;;;47.03;15.57;;;;;;;;;;6200833;23;20710;-91
2021/11/26 23:21:50;;;;;;;45.83;15.27;;;;;;;;;;6184627;23;20587;-89
2021/11/26 23:24:56;;;;;;;57.90;18.37;;;;;;;;;;6184195;23;20187;-90
2021/11/26 23:28:01;;;;;;;52.70;16.67;;;;;;;;;;6200938;23;20168;-89
2021/11/26 23:31:07;;;;;;;46.83;14.90;;;;;;;;;;6183652;23;20236;-90
2021/11/26 23:34:13;;;;;;;49.63;16.27;;;;;;;;;;6185688;23;20156;-90
2021/11/26 23:37:20;;;;;;;52.13;16.17;;;;;;;;;;6184016;23;20192;-89
2021/11/26 23:40:26;;;;;;;41.27;14.37;;;;;;;;;;6183396;23;20163;-92
2021/11/26 23:43:31;;;;;;;46.47;14.13;;;;;;;;;;6183454;23;20168;-91
2021/11/26 23:46:38;;;;;;;44.00;13.47;;;;;;;;;;6182494;23;20168;-90
2021/11/26 23:49:43;;;;;;;43.17;13.97;;;;;;;;;;6200974;23;20179;-89
2021/11/26 23:52:50;;;;;;;48.83;13.87;;;;;;;;;;6182138;23;20199;-90
2021/11/26 23:55:55;;;;;;;46.90;14.80;;;;;;;;;;6183672;23;20270;-91
2021/11/26 23:59:02;;;;;;;52.63;15.47;;;;;;;;;;6182944;23;20247;-91
